Latest Weather Observations for Middle Point

IDD60801

Issued at 11:31 pm CST Tuesday 12 December 2017 (issued every 30 minutes, with the page automatically refreshed every 10 minutes)

About weather observations | Map of weather stations | Latest weather observations for NT | Other Formats
Station Details ID: 014041 Name: MIDDLE POINT Lat: -12.61 Lon: 131.30 Height: 14.1 m
Data from the previous 72 hours. | See also: Recent months at Middle Point
Date/Time
CST
Temp
°C
App
Temp
°C
Dew
Point
°C
Rel
Hum
%
Delta-T
°C
Wind Press
QNH
hPa
Press
MSL
hPa
Rain since
9am
mm
Dir  Spd
km/h
Gust
km/h
Spd
kts
Gust
kts
12/11:30pm 24.8 29.2 23.4 92 1.0 N 6 9 3 5 1008.8 1008.7 24.0
12/11:00pm 25.3 29.5 23.4 89 1.3 WSW 7 11 4 6 1008.6 1008.5 24.0
12/10:30pm 25.0 29.6 23.2 90 1.2 W 4 6 2 3 1008.4 1008.3 24.0
12/10:00pm 25.2 29.2 23.1 88 1.4 WSW 7 7 4 4 1008.6 1008.5 24.0
12/09:30pm 25.3 29.6 22.6 85 1.8 NNW 4 9 2 5 1008.2 1008.1 24.0
12/09:00pm 26.1 29.8 22.2 79 2.6 ENE 6 9 3 5 1008.7 1008.6 24.0
12/08:30pm 27.1 27.5 22.5 76 3.1 E 24 35 13 19 1008.4 1008.3 24.0
12/08:00pm 26.4 31.8 25.2 93 0.8 NE 6 11 3 6 1007.6 1007.5 24.0
12/07:30pm 26.6 33.3 25.4 93 0.8 CALM 0 4 0 2 1006.9 1006.8 24.0
12/07:00pm 27.3 33.8 25.1 88 1.5 CALM 0 0 0 0 1006.7 1006.6 24.0
12/06:30pm 27.2 32.2 24.8 87 1.7 NNE 7 9 4 5 1006.6 1006.5 24.0
12/06:00pm 27.3 32.8 24.6 85 1.9 NW 4 4 2 2 1006.1 1006.0 24.0
12/05:30pm 27.1 31.7 23.8 82 2.3 WNW 6 6 3 3 1006.1 1006.0 24.0
12/05:00pm 26.4 30.5 23.3 83 2.1 WNW 7 9 4 5 1005.5 1005.4 24.0
12/04:30pm 26.1 29.7 23.0 83 2.1 WSW 9 13 5 7 1005.7 1005.6 24.0
12/04:00pm 25.4 28.6 21.3 78 2.7 SW 6 13 3 7 1005.9 1005.8 24.0
12/03:51pm 24.6 26.5 20.5 78 2.7 W 11 24 6 13 1005.9 1005.8 24.0
12/03:37pm 23.4 20.4 20.7 85 1.8 NW 37 56 20 30 1006.1 1006.0 22.8
12/03:30pm 24.7 23.5 20.8 79 2.6 NNE 28 52 15 28 1005.8 1005.7 21.0
12/03:22pm 26.3 24.4 22.8 81 2.4 NE 37 59 20 32 1007.1 1007.0 9.6
12/03:16pm 26.3 24.9 22.2 78 2.8 NNE 33 59 18 32 1006.3 1006.2 4.2
12/03:14pm 26.5 24.9 21.5 74 3.3 NNE 32 59 17 32 1006.2 1006.1 3.4
12/03:13pm 26.7 25.3 20.5 69 4.1 N 28 54 15 29 1006.2 1006.1 2.6
12/03:12pm 28.3 27.2 20.3 62 5.3 N 26 46 14 25 1006.2 1006.1 2.0
12/03:00pm 34.9 36.9 22.9 49 8.3 NNW 17 22 9 12 1006.0 1005.9 0.0
12/02:30pm 34.1 37.3 25.5 61 6.1 NNW 19 26 10 14 1006.3 1006.2 0.0
12/02:00pm 35.0 39.3 24.3 54 7.5 NNW 9 13 5 7 1006.9 1006.8 0.0
12/01:30pm 35.0 39.0 23.7 52 7.9 WSW 9 17 5 9 1007.6 1007.5 0.0
12/01:00pm 34.9 39.4 23.9 53 7.7 W 7 17 4 9 1008.2 1008.1 0.0
12/12:30pm 34.4 39.1 24.0 54 7.3 WNW 6 11 3 6 1008.8 1008.7 0.0
12/12:00pm 34.0 39.0 24.8 58 6.5 W 7 15 4 8 1009.3 1009.2 0.0
12/11:30am 34.2 39.1 25.3 59 6.3 SW 9 15 5 8 1009.7 1009.6 0.0
12/11:00am 33.6 38.2 25.3 62 5.9 WSW 11 17 6 9 1010.2 1010.1 0.0
12/10:30am 32.6 36.9 24.9 64 5.4 WSW 11 17 6 9 1010.5 1010.4 0.0
12/10:00am 32.0 36.9 25.8 69 4.4 W 11 15 6 8 1010.9 1010.7 0.0
12/09:30am 31.3 36.4 25.6 71 4.0 W 9 15 5 8 1011.1 1010.9 0.0
12/09:00am 30.6 36.7 25.7 75 3.5 WSW 4 6 2 3 1010.9 1010.7 1.6
12/08:30am 29.1 35.4 25.3 80 2.7 WSW 2 2 1 1 1010.6 1010.5 1.6
12/08:00am 27.5 34.0 25.1 87 1.7 CALM 0 0 0 0 1010.3 1010.2 1.6
12/07:30am 26.2 32.5 24.8 92 1.0 CALM 0 0 0 0 1009.9 1009.8 1.6
12/07:00am 25.3 31.0 24.4 95 0.6 SE 2 2 1 1 1009.6 1009.5 1.6
12/06:30am 24.6 29.3 23.9 96 0.5 SE 6 6 3 3 1009.4 1009.3 1.6
12/06:00am 24.8 30.3 24.1 96 0.5 ENE 2 6 1 3 1009.1 1009.0 1.6
12/05:30am 24.9 30.7 24.0 95 0.6 CALM 0 0 0 0 1008.8 1008.7 1.6
12/05:00am 24.6 29.6 23.9 96 0.5 N 4 6 2 3 1008.6 1008.5 1.6
12/04:30am 24.6 29.6 23.9 96 0.5 W 4 4 2 2 1008.5 1008.4 1.6
12/04:00am 24.8 30.2 23.9 95 0.6 E 2 6 1 3 1008.5 1008.4 1.6
12/03:30am 25.6 31.2 24.2 92 1.0 E 2 2 1 1 1008.6 1008.5 1.6
12/03:00am 25.8 31.0 24.2 91 1.1 ENE 4 6 2 3 1008.9 1008.8 1.6
12/02:30am 26.1 31.1 24.5 91 1.1 NNE 6 7 3 4 1009.0 1008.9 1.6
12/02:00am 26.1 32.4 24.7 92 1.0 CALM 0 4 0 2 1008.8 1008.7 1.6
12/01:30am 26.5 31.4 24.7 90 1.3 N 7 9 4 5 1009.1 1009.0 1.6
12/01:00am 26.3 31.2 24.7 91 1.1 NE 7 9 4 5 1009.7 1009.6 1.6
12/12:30am 25.9 31.0 24.9 94 0.7 NNE 7 9 4 5 1009.7 1009.6 1.6
12/12:00am 25.8 30.4 24.8 94 0.7 NNE 9 11 5 6 1009.9 1009.8 1.6
 
Date/Time
CST
Temp
°C
App
Temp
°C
Dew
Point
°C
Rel
Hum
%
Delta-T
°C
Wind Press
QNH
hPa
Press
MSL
hPa
Rain since
9am
mm
Dir  Spd
km/h
Gust
km/h
Spd
kts
Gust
kts
11/11:30pm 25.6 30.4 24.4 93 0.8 W 7 7 4 4 1009.6 1009.5 1.6
11/11:00pm 25.9 30.8 24.7 93 0.8 N 7 9 4 5 1009.8 1009.7 1.6
11/10:30pm 25.6 31.1 24.7 95 0.6 N 4 6 2 3 1010.0 1009.9 1.6
11/10:00pm 25.9 31.5 24.3 91 1.1 N 2 4 1 2 1009.7 1009.6 1.6
11/09:30pm 25.6 30.3 24.0 91 1.1 WNW 6 6 3 3 1009.3 1009.2 1.6
11/09:00pm 25.9 30.8 24.3 91 1.1 WSW 6 9 3 5 1009.1 1009.0 1.6
11/08:30pm 26.8 32.4 24.3 86 1.7 ENE 2 4 1 2 1009.0 1008.9 1.6
11/08:00pm 26.5 31.1 24.2 87 1.6 SE 7 13 4 7 1008.8 1008.7 1.6
11/07:30pm 27.1 32.6 24.6 86 1.7 SSW 4 6 2 3 1008.7 1008.6 1.6
11/07:00pm 27.2 31.8 24.1 83 2.1 SW 7 13 4 7 1008.3 1008.2 1.6
11/06:30pm 27.7 32.7 24.5 83 2.2 NW 6 7 3 4 1007.5 1007.4 1.6
11/06:00pm 26.6 30.2 23.1 81 2.4 WNW 9 13 5 7 1006.4 1006.3 1.6
11/05:30pm 28.7 32.5 24.0 76 3.3 SSE 11 26 6 14 1007.1 1007.0 1.6
11/05:00pm 27.4 30.5 24.1 82 2.3 NNE 15 24 8 13 1006.8 1006.7 1.6
11/04:48pm 28.0 28.9 22.7 73 3.6 N 22 41 12 22 1006.6 1006.5 0.2
11/04:30pm 33.7 35.1 22.8 53 7.5 N 20 28 11 15 1006.0 1005.9 0.0
11/04:00pm 35.1 38.7 22.4 47 8.7 N 7 11 4 6 1006.0 1005.9 0.0
11/03:30pm 35.5 39.5 23.1 48 8.6 NNW 7 13 4 7 1006.5 1006.4 0.0
11/03:00pm 35.0 38.0 22.0 46 8.9 N 9 17 5 9 1006.6 1006.5 0.0
11/02:30pm 35.3 39.8 22.3 47 9.0 NNW 2 7 1 4 1007.0 1006.9 0.0
11/02:00pm 35.8 40.0 23.1 48 8.8 NNW 6 15 3 8 1007.4 1007.3 0.0
11/01:30pm 35.1 38.7 22.4 47 8.8 N 7 15 4 8 1008.1 1008.0 0.0
11/01:00pm 34.7 38.7 22.7 49 8.3 N 6 15 3 8 1008.6 1008.5 0.0
11/12:30pm 35.3 39.0 23.3 50 8.4 N 9 19 5 10 1009.3 1009.2 0.0
11/12:00pm 34.9 38.2 22.6 49 8.5 N 9 19 5 10 1009.8 1009.7 0.0
11/11:30am 34.4 38.4 22.8 51 8.0 N 6 13 3 7 1010.4 1010.3 0.0
11/11:00am 33.6 36.8 22.4 52 7.7 N 9 17 5 9 1010.6 1010.5 0.0
11/10:30am 32.8 37.0 23.2 57 6.6 W 6 11 3 6 1011.3 1011.1 0.0
11/10:00am 32.2 36.7 23.7 61 5.9 NW 6 9 3 5 1011.5 1011.3 0.0
11/09:30am 31.5 36.1 24.1 65 5.2 W 7 11 4 6 1011.9 1011.7 0.0
11/09:00am 30.6 36.1 24.0 68 4.6 SW 2 7 1 4 1012.1 1011.9 0.0
11/08:30am 29.6 35.2 24.2 73 3.8 SSE 2 6 1 3 1012.0 1011.8 0.0
11/08:00am 28.1 33.7 24.9 83 2.2 S 4 6 2 3 1011.8 1011.6 0.0
11/07:30am 26.5 32.4 24.7 90 1.3 S 2 6 1 3 1011.6 1011.4 0.0
11/07:00am 24.7 30.4 23.7 94 0.7 CALM 0 0 0 0 1011.4 1011.2 0.0
11/06:30am 23.5 28.0 22.3 93 0.8 SSE 2 2 1 1 1011.1 1010.9 0.0
11/06:00am 23.5 27.8 22.7 95 0.5 SSE 4 6 2 3 1010.5 1010.4 0.0
11/05:30am 23.7 28.4 22.7 94 0.7 NW 2 4 1 2 1010.2 1010.1 0.0
11/05:00am 24.1 29.4 23.1 94 0.7 CALM 0 0 0 0 1009.6 1009.5 0.0
11/04:30am 24.0 28.9 23.0 94 0.7 NW 2 2 1 1 1009.1 1009.0 0.0
11/04:00am 23.8 28.6 22.8 94 0.7 NW 2 2 1 1 1008.9 1008.8 0.0
11/03:30am 23.9 27.8 23.0 95 0.6 NW 7 7 4 4 1008.8 1008.7 0.0
11/03:00am 24.1 28.6 22.9 93 0.8 NW 4 6 2 3 1009.2 1009.1 0.0
11/02:30am 23.9 27.9 22.7 93 0.8 NNW 6 6 3 3 1009.3 1009.2 0.0
11/02:00am 24.0 29.1 22.6 92 0.9 CALM 0 0 0 0 1009.5 1009.4 0.0
11/01:30am 24.4 29.6 22.8 91 1.1 CALM 0 0 0 0 1009.8 1009.7 0.0
11/01:00am 24.7 29.9 22.9 90 1.2 CALM 0 0 0 0 1010.0 1009.9 0.0
11/12:30am 25.1 30.5 23.2 89 1.3 CALM 0 0 0 0 1010.1 1010.0 0.0
11/12:00am 25.0 29.6 22.5 86 1.7 WNW 2 4 1 2 1010.1 1010.0 0.0
 
Date/Time
CST
Temp
°C
App
Temp
°C
Dew
Point
°C
Rel
Hum
%
Delta-T
°C
Wind Press
QNH
hPa
Press
MSL
hPa
Rain since
9am
mm
Dir  Spd
km/h
Gust
km/h
Spd
kts
Gust
kts
10/11:30pm 25.4 30.5 22.7 85 1.8 CALM 0 0 0 0 1010.0 1009.9 0.0
10/11:00pm 25.1 29.7 22.4 85 1.8 NW 2 4 1 2 1010.0 1009.9 0.0
10/10:30pm 24.7 29.4 22.6 88 1.4 W 2 4 1 2 1009.9 1009.8 0.0
10/10:00pm 25.2 30.2 22.5 85 1.8 CALM 0 0 0 0 1009.9 1009.8 0.0
10/09:30pm 25.5 29.7 22.4 83 2.1 N 4 4 2 2 1009.6 1009.5 0.0
10/09:00pm 25.7 30.1 22.8 84 2.0 WNW 4 4 2 2 1009.4 1009.3 0.0
10/08:30pm 26.3 30.2 21.9 77 2.9 NNE 4 6 2 3 1009.0 1008.9 0.0
10/08:00pm 25.9 29.6 22.2 80 2.5 WNW 6 7 3 4 1008.8 1008.7 0.0
10/07:30pm 27.0 30.2 21.7 73 3.5 N 7 7 4 4 1008.3 1008.2 0.0
10/07:00pm 27.2 30.3 21.5 71 3.8 NNW 7 11 4 6 1008.1 1008.0 0.0
10/06:30pm 27.1 30.3 21.2 70 3.9 SW 6 11 3 6 1008.5 1008.4 0.0
10/06:04pm 27.4 25.3 21.0 68 4.2 S 33 56 18 30 1008.7 1008.6 0.0
10/06:00pm 27.3 23.7 20.9 68 4.2 S 41 57 22 31 1008.5 1008.4 0.0
10/05:40pm 31.2 33.5 22.8 61 5.8 NE 15 46 8 25 1009.3 1009.2 0.0
10/05:30pm 32.4 34.3 23.4 59 6.2 N 19 30 10 16 1007.6 1007.5 0.0
10/05:00pm 32.3 34.8 23.8 61 5.9 N 17 24 9 13 1006.8 1006.7 0.0
10/04:30pm 32.7 34.7 23.6 58 6.3 N 19 28 10 15 1006.7 1006.6 0.0
10/04:00pm 33.8 35.9 24.1 57 6.8 NNE 20 32 11 17 1006.7 1006.6 0.0
10/03:30pm 35.6 38.4 25.2 55 7.4 NNE 20 30 11 16 1007.3 1007.2 0.0
10/03:00pm 35.6 38.9 24.5 52 7.9 NNE 15 24 8 13 1007.5 1007.4 0.0
10/02:30pm 35.7 37.7 22.3 46 9.2 NNE 15 26 8 14 1007.7 1007.6 0.0
10/02:00pm 36.5 39.5 23.4 47 9.2 NE 13 20 7 11 1008.0 1007.9 0.0
10/01:30pm 34.5 36.9 22.2 48 8.4 E 13 22 7 12 1008.3 1008.2 0.0
10/01:00pm 35.6 38.5 22.5 46 9.0 ESE 11 15 6 8 1008.6 1008.5 0.0
10/12:30pm 34.3 36.4 21.7 47 8.6 NNE 13 22 7 12 1009.2 1009.1 0.0
10/12:00pm 35.1 39.5 23.8 52 7.9 ENE 7 24 4 13 1009.6 1009.5 0.0
10/11:30am 33.6 39.2 24.2 58 6.6 WNW 2 7 1 4 1010.0 1009.9 0.0
10/11:00am 33.5 38.4 24.4 59 6.4 ESE 6 15 3 8 1010.3 1010.2 0.0
10/10:30am 32.7 36.8 23.9 60 6.1 ENE 9 15 5 8 1010.4 1010.3 0.0
10/10:00am 32.2 37.9 25.0 65 5.1 S 4 9 2 5 1010.4 1010.3 0.0
10/09:30am 30.8 36.3 24.7 70 4.3 S 4 7 2 4 1010.4 1010.3 0.0
10/09:00am 30.3 36.1 25.1 73 3.7 E 4 6 2 3 1010.3 1010.2 0.0
10/08:30am 29.5 35.2 25.0 77 3.2 SSE 4 7 2 4 1010.4 1010.3 0.0
10/08:00am 28.3 34.1 24.5 80 2.6 SE 2 4 1 2 1010.5 1010.4 0.0
10/07:30am 27.3 32.6 24.4 84 2.0 SE 4 6 2 3 1010.2 1010.1 0.0
10/07:00am 26.2 32.5 24.8 92 1.0 CALM 0 0 0 0 1009.8 1009.7 0.0
10/06:30am 24.4 29.5 23.4 94 0.7 E 2 4 1 2 1009.3 1009.2 0.0
10/06:00am 24.5 29.6 23.3 93 0.8 WNW 2 2 1 1 1008.8 1008.7 0.0
10/05:30am 25.4 31.4 24.9 97 0.3 WNW 2 2 1 1 1008.6 1008.5 0.0
10/05:00am 24.7 30.5 24.0 96 0.5 CALM 0 0 0 0 1008.4 1008.3 0.0
10/04:30am 24.9 30.7 23.9 94 0.7 CALM 0 0 0 0 1008.4 1008.3 0.0
10/04:00am 25.6 31.4 25.1 97 0.3 WNW 4 4 2 2 1008.2 1008.1 0.0
10/03:30am 25.1 31.1 24.2 95 0.6 CALM 0 0 0 0 1008.3 1008.2 0.0
10/03:00am 25.2 30.9 23.8 92 1.0 CALM 0 0 0 0 1008.3 1008.2 0.0
10/02:30am 26.1 32.6 25.1 94 0.7 CALM 0 0 0 0 1008.4 1008.3 0.0
10/02:00am 26.1 32.6 25.1 94 0.7 CALM 0 0 0 0 1008.5 1008.4 0.0
10/01:30am 26.2 32.8 25.2 94 0.7 CALM 0 0 0 0 1008.7 1008.6 0.0
10/01:00am 26.2 32.7 25.0 93 0.8 CALM 0 0 0 0 1009.0 1008.9 0.0
10/12:30am 26.1 32.4 24.7 92 1.0 CALM 0 0 0 0 1009.3 1009.2 0.0
10/12:00am 26.1 32.5 24.9 93 0.8 CALM 0 0 0 0 1009.6 1009.5 0.0

Other Formats:

Comma delimited format used in spreadsheet applications
http://www.bom.gov.au/fwo/IDD60801/IDD60801.95121.axf

JavaScript Object Notation format (JSON) in row-major order
http://www.bom.gov.au/fwo/IDD60801/IDD60801.95121.json